createdAt,value
2022-10-22T00:03:02.836Z,98308.86
2022-10-22T00:08:24.614Z,98313.51
2022-10-22T00:19:15.051Z,98305.09
2022-10-22T00:24:37.826Z,98310.83
2022-10-22T00:29:59.666Z,98305.70
2022-10-22T00:35:21.238Z,98310.53
2022-10-22T00:40:43.415Z,98304.00
2022-10-22T00:46:05.445Z,98306.38
2022-10-22T00:51:29.783Z,98299.48
2022-10-22T00:56:51.168Z,98294.30
2022-10-22T01:02:13.037Z,98296.48
2022-10-22T01:07:40.283Z,98287.48
2022-10-22T01:13:15.059Z,98288.13
2022-10-22T01:18:42.913Z,98281.73
2022-10-22T01:24:12.368Z,98274.14
2022-10-22T01:29:37.854Z,98258.19
2022-10-22T01:35:06.943Z,98262.65
2022-10-22T01:40:29.796Z,98265.06
2022-10-22T01:45:58.602Z,98264.52
2022-10-22T01:51:26.301Z,98258.97
2022-10-22T01:56:54.953Z,98253.08
2022-10-22T02:02:32.037Z,98250.44
2022-10-22T02:08:03.604Z,98245.45
2022-10-22T02:13:28.848Z,98248.78
2022-10-22T02:18:53.910Z,98250.04
2022-10-22T02:24:16.412Z,98253.13
2022-10-22T02:35:42.024Z,98243.08
2022-10-22T02:41:04.146Z,98238.36
2022-10-22T02:46:25.846Z,98250.13
2022-10-22T02:51:50.414Z,98260.05
2022-10-22T02:57:12.226Z,98268.98
2022-10-22T03:02:34.374Z,98275.71
2022-10-22T03:07:55.986Z,98278.81
2022-10-22T03:13:17.966Z,98284.96
2022-10-22T03:18:39.915Z,98283.05
2022-10-22T03:24:09.506Z,98271.69
2022-10-22T03:29:32.249Z,98258.14
2022-10-22T03:34:54.097Z,98246.15
2022-10-22T03:40:16.108Z,98245.88
2022-10-22T03:50:59.764Z,98256.11
2022-10-22T03:56:21.699Z,98257.98
2022-10-22T04:01:43.426Z,98260.04
2022-10-22T04:07:06.158Z,98279.74
2022-10-22T04:12:27.585Z,98285.58
2022-10-22T04:17:49.452Z,98281.91
2022-10-22T04:23:11.442Z,98258.36
2022-10-22T04:28:34.424Z,98241.90
2022-10-22T04:33:58.009Z,98237.28
2022-10-22T04:39:19.324Z,98225.33
2022-10-22T04:44:41.070Z,98229.30
2022-10-22T04:50:02.726Z,98210.05
2022-10-22T04:55:24.292Z,98203.16
2022-10-22T05:00:46.360Z,98207.81
2022-10-22T05:06:08.641Z,98212.27
2022-10-22T05:11:33.934Z,98223.24
2022-10-22T05:16:55.858Z,98254.48
2022-10-22T05:22:17.630Z,98256.95
2022-10-22T05:27:39.385Z,98255.94
2022-10-22T05:33:01.106Z,98251.46
2022-10-22T05:38:23.290Z,98259.50
2022-10-22T05:43:45.400Z,98246.95
2022-10-22T05:49:07.832Z,98241.61
2022-10-22T05:54:29.760Z,98246.73
2022-10-22T05:59:51.693Z,98248.22
2022-10-22T06:05:13.247Z,98238.73
2022-10-22T06:10:35.051Z,98256.17
2022-10-22T06:15:56.775Z,98288.07
2022-10-22T06:21:18.132Z,98298.95
2022-10-22T06:26:40.217Z,98291.77
2022-10-22T06:32:02.046Z,98297.99
2022-10-22T06:37:23.928Z,98299.71
2022-10-22T06:42:45.823Z,98311.05
2022-10-22T06:48:07.450Z,98313.11
2022-10-22T06:53:29.778Z,98305.30
2022-10-22T06:58:52.911Z,98312.63
2022-10-22T07:04:14.375Z,98308.45
2022-10-22T07:09:36.268Z,98304.39
2022-10-22T07:14:58.007Z,98301.36
2022-10-22T07:20:21.833Z,98311.40
2022-10-22T07:25:43.563Z,98312.98
2022-10-22T07:31:06.193Z,98316.10
2022-10-22T07:36:28.123Z,98312.16
2022-10-22T07:41:49.751Z,98318.90
2022-10-22T07:47:11.820Z,98302.94
2022-10-22T07:52:34.120Z,98315.19
2022-10-22T07:57:55.923Z,98328.27
2022-10-22T08:03:18.482Z,98324.49
2022-10-22T08:08:40.840Z,98302.97
2022-10-22T08:14:02.400Z,98298.67
2022-10-22T08:19:24.063Z,98316.91
2022-10-22T08:24:46.691Z,98325.52
2022-10-22T08:30:09.563Z,98327.24
2022-10-22T08:35:32.222Z,98327.21
2022-10-22T08:41:01.336Z,98327.37
2022-10-22T08:46:34.281Z,98348.06
2022-10-22T08:51:58.013Z,98352.90
2022-10-22T09:03:29.139Z,98352.36
2022-10-22T09:08:52.794Z,98339.77
2022-10-22T09:14:17.471Z,98331.32
2022-10-22T09:20:01.425Z,98336.30
2022-10-22T09:25:27.522Z,98354.72
2022-10-22T09:30:49.229Z,98361.45
2022-10-22T09:36:17.695Z,98361.61
2022-10-22T09:41:39.124Z,98365.21
2022-10-22T09:47:05.117Z,98363.30
2022-10-22T09:52:28.952Z,98364.89
2022-10-22T09:57:55.690Z,98366.61
2022-10-22T10:03:37.645Z,98367.61
2022-10-22T10:09:03.325Z,98365.86
2022-10-22T10:14:40.623Z,98358.58
2022-10-22T10:20:17.305Z,98356.69
2022-10-22T10:25:49.721Z,98343.09
2022-10-22T10:31:17.380Z,98345.16
2022-10-22T10:36:56.653Z,98342.77
2022-10-22T10:42:22.952Z,98338.61
2022-10-22T10:48:10.275Z,98348.89
2022-10-22T10:53:47.994Z,98348.17
2022-10-22T10:59:50.631Z,98340.89
2022-10-22T11:05:21.465Z,98333.48
2022-10-22T11:10:50.647Z,98332.43
2022-10-22T11:16:31.360Z,98319.48
2022-10-22T11:22:05.255Z,98318.98
2022-10-22T11:27:32.112Z,98305.34
2022-10-22T11:32:56.699Z,98307.86
2022-10-22T11:38:22.987Z,98306.96
2022-10-22T11:44:01.931Z,98307.98
2022-10-22T11:49:41.980Z,98308.12
2022-10-22T11:55:48.522Z,98311.04
2022-10-22T12:01:09.832Z,98301.17
2022-10-22T12:06:53.408Z,98300.18
2022-10-22T12:12:16.074Z,98305.56
2022-10-22T12:17:37.806Z,98313.23
2022-10-22T12:23:00.200Z,98304.67
2022-10-22T12:28:22.866Z,98298.48
2022-10-22T12:33:44.898Z,98302.30
2022-10-22T12:39:18.488Z,98307.48
2022-10-22T12:44:40.523Z,98300.02
2022-10-22T12:50:03.831Z,98300.27
2022-10-22T12:55:26.137Z,98292.21
2022-10-22T13:00:48.523Z,98287.62
2022-10-22T13:06:19.748Z,98281.91
2022-10-22T13:12:01.755Z,98279.66
2022-10-22T13:17:41.023Z,98284.70
2022-10-22T13:23:05.687Z,98297.70
2022-10-22T13:28:27.646Z,98295.65
2022-10-22T13:33:58.123Z,98299.46
2022-10-22T13:39:24.622Z,98297.23
2022-10-22T13:44:46.548Z,98299.30
2022-10-22T13:50:17.905Z,98299.66
2022-10-22T13:55:39.492Z,98298.96
2022-10-22T14:01:02.663Z,98296.02
2022-10-22T14:06:28.596Z,98305.36
2022-10-22T14:11:50.230Z,98310.02
2022-10-22T14:17:16.889Z,98314.16
2022-10-22T14:22:38.725Z,98315.89
2022-10-22T14:28:00.247Z,98312.96
2022-10-22T14:33:29.036Z,98317.27
2022-10-22T14:38:53.740Z,98319.84
2022-10-22T14:44:15.468Z,98314.85
2022-10-22T14:49:37.052Z,98313.48
2022-10-22T14:54:59.060Z,98311.24
2022-10-22T15:00:23.031Z,98313.30
2022-10-22T15:05:45.104Z,98314.67
2022-10-22T15:11:08.927Z,98322.95
2022-10-22T15:16:30.657Z,98323.47
2022-10-22T15:21:52.588Z,98335.00
2022-10-22T15:27:14.767Z,98342.77
2022-10-22T15:32:36.411Z,98343.80
2022-10-22T15:37:58.372Z,98345.34
2022-10-22T15:43:20.141Z,98346.20
2022-10-22T15:48:41.926Z,98351.73
2022-10-22T15:54:09.228Z,98353.96
2022-10-22T15:59:32.228Z,98355.67
2022-10-22T16:04:53.840Z,98357.58
2022-10-22T16:10:15.932Z,98358.27
2022-10-22T16:15:37.427Z,98363.95
2022-10-22T16:20:59.127Z,98372.02
2022-10-22T16:26:21.096Z,98371.16
2022-10-22T16:31:45.691Z,98379.09
2022-10-22T16:37:10.322Z,98394.59
2022-10-22T16:42:32.519Z,98404.39
2022-10-22T16:47:54.266Z,98415.56
2022-10-22T16:53:15.849Z,98418.48
2022-10-22T16:58:38.552Z,98426.39
2022-10-22T17:04:00.996Z,98439.96
2022-10-22T17:09:24.324Z,98447.20
2022-10-22T17:14:46.206Z,98453.06
2022-10-22T17:20:08.144Z,98460.82
2022-10-22T17:25:37.194Z,98464.44
2022-10-22T17:31:37.563Z,98463.77
2022-10-22T17:37:00.372Z,98467.73
2022-10-22T17:42:22.259Z,98468.09
2022-10-22T17:47:44.039Z,98470.70
2022-10-22T17:53:07.013Z,98473.14
2022-10-22T17:58:31.258Z,98473.16
2022-10-22T18:03:53.897Z,98476.80
2022-10-22T18:09:18.873Z,98474.38
2022-10-22T18:14:41.302Z,98482.82
2022-10-22T18:20:02.604Z,98475.42
2022-10-22T18:25:24.185Z,98469.91
2022-10-22T18:30:47.248Z,98464.73
2022-10-22T18:36:11.655Z,98467.97
2022-10-22T18:41:33.885Z,98476.94
2022-10-22T18:46:55.446Z,98485.02
2022-10-22T18:52:17.474Z,98496.58
2022-10-22T18:57:39.404Z,98503.48
2022-10-22T19:03:01.444Z,98511.60
2022-10-22T19:08:23.062Z,98520.39
2022-10-22T19:13:44.447Z,98526.95
2022-10-22T19:19:07.786Z,98534.55
2022-10-22T19:24:29.963Z,98540.77
2022-10-22T19:29:51.691Z,98545.95
2022-10-22T19:35:13.379Z,98551.65
2022-10-22T19:40:34.939Z,98558.89
2022-10-22T19:45:56.870Z,98567.86
2022-10-22T19:51:21.013Z,98570.47
2022-10-22T19:56:42.400Z,98577.88
2022-10-22T20:02:03.964Z,98581.17
2022-10-22T20:07:25.604Z,98585.49
2022-10-22T20:12:47.374Z,98584.47
2022-10-22T20:18:09.047Z,98582.40
2022-10-22T20:23:30.676Z,98579.81
2022-10-22T20:28:52.483Z,98581.02
2022-10-22T20:34:14.499Z,98583.77
2022-10-22T20:39:37.245Z,98587.05
2022-10-22T20:44:58.869Z,98594.12
2022-10-22T20:50:21.472Z,98593.77
2022-10-22T20:55:43.155Z,98593.77
2022-10-22T21:01:10.586Z,98593.08
2022-10-22T21:06:32.723Z,98605.66
2022-10-22T21:17:20.986Z,98606.70
2022-10-22T21:22:43.516Z,98608.94
2022-10-22T21:28:05.403Z,98607.56
2022-10-22T21:33:27.654Z,98614.12
2022-10-22T21:38:49.134Z,98617.05
2022-10-22T21:44:11.056Z,98623.60
2022-10-22T21:49:33.166Z,98628.44
2022-10-22T21:54:54.814Z,98630.32
2022-10-22T22:00:21.323Z,98625.66
2022-10-22T22:05:42.889Z,98625.52
2022-10-22T22:11:10.843Z,98630.84
2022-10-22T22:16:33.757Z,98633.59
2022-10-22T22:21:55.501Z,98635.48
2022-10-22T22:27:17.576Z,98636.17
2022-10-22T22:32:39.307Z,98643.39
2022-10-22T22:38:02.895Z,98639.60
2022-10-22T22:43:24.923Z,98654.75
2022-10-22T22:48:50.165Z,98669.41
2022-10-22T22:54:11.839Z,98663.73
2022-10-22T22:59:33.783Z,98667.88
2022-10-22T23:04:55.551Z,98667.20
2022-10-22T23:10:17.584Z,98672.05
2022-10-22T23:15:40.378Z,98674.98
2022-10-22T23:21:06.748Z,98683.78
2022-10-22T23:26:31.216Z,98681.20
2022-10-22T23:31:53.727Z,98690.34
2022-10-22T23:37:15.557Z,98700.53
2022-10-22T23:42:40.237Z,98704.50
2022-10-22T23:48:02.224Z,98711.20
2022-10-22T23:53:23.954Z,98711.37
2022-10-22T23:58:45.639Z,98716.35
